Time;durP1;ratioP1;P1;durP2;ratioP2;P2;SDS_P1;SDS_P2;PMS_P1;PMS_P2;Temp;Humidity;BMP_temperature;BMP_pressure;BME280_temperature;BME280_humidity;BME280_pressure;Samples;Min_cycle;Max_cycle;Signal;HPM_P1;HPM_P2
2024/01/29 00:00:16;;;;;;;2.13;1.20;;;22.20;50.00;;;;;;4955909;28;86883;-59
2024/01/29 00:02:46;;;;;;;1.42;0.80;;;22.20;49.50;;;;;;4954469;28;88039;-58
2024/01/29 00:05:11;;;;;;;1.35;1.05;;;22.20;49.50;;;;;;4957494;28;88711;-59
2024/01/29 00:07:38;;;;;;;1.52;1.00;;;22.10;49.60;;;;;;4957650;28;87993;-59
2024/01/29 00:10:05;;;;;;;1.77;0.95;;;22.10;49.60;;;;;;4956213;28;87241;-57
2024/01/29 00:12:31;;;;;;;1.90;1.20;;;22.10;49.60;;;;;;4957532;28;88587;-59
2024/01/29 00:14:58;;;;;;;1.38;0.93;;;22.10;49.60;;;;;;4986856;28;89978;-58
2024/01/29 00:17:24;;;;;;;0.85;0.85;;;22.10;49.60;;;;;;4952678;28;88169;-56
2024/01/29 00:19:50;;;;;;;2.00;1.00;;;22.00;49.50;;;;;;4957588;28;87130;-58
2024/01/29 00:22:15;;;;;;;2.58;1.23;;;22.00;49.60;;;;;;4939836;28;87952;-58
2024/01/29 00:24:41;;;;;;;1.42;0.90;;;22.00;49.60;;;;;;4959686;28;88076;-58
2024/01/29 00:27:07;;;;;;;1.38;0.90;;;22.00;49.50;;;;;;4957151;28;87309;-58
2024/01/29 00:29:33;;;;;;;0.93;0.73;;;21.90;49.50;;;;;;4954408;28;87367;-59
2024/01/29 00:32:00;;;;;;;1.95;1.30;;;21.90;49.60;;;;;;4987865;28;88619;-58
2024/01/29 00:34:26;;;;;;;2.22;1.35;;;21.90;49.50;;;;;;4955850;28;88246;-58
2024/01/29 00:36:52;;;;;;;1.77;1.02;;;21.90;49.50;;;;;;4956404;27;87748;-59
2024/01/29 00:39:17;;;;;;;1.30;0.77;;;21.90;49.60;;;;;;4938736;28;87881;-58
2024/01/29 00:41:43;;;;;;;1.65;1.17;;;21.90;49.50;;;;;;4957582;28;89202;-58
2024/01/29 00:44:09;;;;;;;1.83;1.35;;;21.80;49.60;;;;;;4949964;28;88765;-57
2024/01/29 00:46:39;;;;;;;1.42;1.20;;;21.80;49.50;;;;;;4957524;28;87000;-57
2024/01/29 00:49:04;;;;;;;;;;;21.80;49.70;;;;;;4957900;27;87058;-59
2024/01/29 00:51:30;;;;;;;1.10;0.80;;;21.80;49.60;;;;;;4952947;28;88861;-57
2024/01/29 00:53:56;;;;;;;1.65;1.08;;;21.80;49.60;;;;;;4957603;28;87050;-58
2024/01/29 00:56:22;;;;;;;2.25;1.00;;;21.70;49.50;;;;;;4937982;27;87765;-58
2024/01/29 00:58:47;;;;;;;5.28;1.27;;;21.70;49.50;;;;;;4957360;28;86809;-59
2024/01/29 01:01:13;;;;;;;1.20;0.77;;;21.70;49.50;;;;;;4953258;28;89586;-58
2024/01/29 01:03:39;;;;;;;1.77;1.02;;;21.70;49.70;;;;;;4953349;28;87840;-58
2024/01/29 01:06:05;;;;;;;2.13;1.08;;;21.60;49.60;;;;;;4952940;28;89645;-57
2024/01/29 01:08:31;;;;;;;2.88;0.90;;;21.60;49.50;;;;;;4955073;28;87551;-55
2024/01/29 01:10:57;;;;;;;1.00;0.90;;;21.60;49.60;;;;;;4957274;28;88189;-58
2024/01/29 01:13:23;;;;;;;1.10;0.95;;;21.60;49.80;;;;;;4948046;28;87574;-57
2024/01/29 01:15:49;;;;;;;0.82;0.82;;;21.60;49.70;;;;;;4952752;28;87356;-58
2024/01/29 01:18:15;;;;;;;1.52;1.02;;;21.60;49.50;;;;;;4954940;28;87633;-58
2024/01/29 01:20:41;;;;;;;1.02;0.80;;;21.50;49.70;;;;;;4954063;28;88500;-58
2024/01/29 01:23:06;;;;;;;1.10;1.00;;;21.50;49.60;;;;;;4955454;28;87537;-58
2024/01/29 01:25:32;;;;;;;1.08;0.88;;;21.50;49.40;;;;;;4952125;28;87080;-57
2024/01/29 01:27:58;;;;;;;1.63;1.02;;;21.50;49.60;;;;;;4953946;28;87973;-58
2024/01/29 01:30:25;;;;;;;1.48;1.10;;;21.50;49.40;;;;;;4956248;28;88985;-58
2024/01/29 01:32:51;;;;;;;2.00;1.05;;;21.50;49.60;;;;;;4953756;27;88070;-58
2024/01/29 01:35:19;;;;;;;1.00;0.88;;;21.50;49.50;;;;;;4959271;28;87007;-59
2024/01/29 01:37:44;;;;;;;2.05;1.00;;;21.50;49.40;;;;;;4956491;28;87545;-57
2024/01/29 01:40:11;;;;;;;1.95;1.02;;;21.40;49.60;;;;;;4956764;28;88082;-56
2024/01/29 01:42:44;;;;;;;0.73;0.70;;;21.50;49.60;;;;;;4959513;28;87809;-57
2024/01/29 01:45:11;;;;;;;0.85;0.77;;;21.40;49.60;;;;;;4961450;28;87389;-56
2024/01/29 01:47:37;;;;;;;1.25;0.93;;;21.40;49.50;;;;;;4955982;27;86922;-58
2024/01/29 01:50:06;;;;;;;1.10;0.77;;;21.40;49.40;;;;;;4958668;28;88002;-58
2024/01/29 01:52:33;;;;;;;1.38;1.10;;;21.40;49.50;;;;;;4955633;28;88346;-57
2024/01/29 01:54:59;;;;;;;0.75;0.73;;;21.40;49.70;;;;;;4955610;28;88577;-59
2024/01/29 01:57:27;;;;;;;1.38;1.08;;;21.30;49.60;;;;;;4953911;28;88212;-57
2024/01/29 01:59:53;;;;;;;1.13;0.95;;;21.30;49.60;;;;;;4955540;27;88654;-59
2024/01/29 02:02:19;;;;;;;1.00;0.90;;;21.30;49.70;;;;;;4953962;27;88645;-57
2024/01/29 02:04:44;;;;;;;0.95;0.70;;;21.30;49.60;;;;;;4957086;28;87572;-59
2024/01/29 02:07:11;;;;;;;1.75;1.20;;;21.30;49.70;;;;;;4956736;27;87969;-59
2024/01/29 02:09:37;;;;;;;1.42;0.98;;;21.30;49.80;;;;;;4954960;28;88809;-59
2024/01/29 02:12:03;;;;;;;1.08;0.98;;;21.30;49.80;;;;;;4956906;28;88260;-57
2024/01/29 02:14:29;;;;;;;0.82;0.80;;;21.20;49.80;;;;;;4960577;27;87564;-58
2024/01/29 02:19:23;;;;;;;2.08;1.45;;;21.20;49.70;;;;;;4953086;28;90839;-58
2024/01/29 02:21:49;;;;;;;1.45;0.90;;;21.20;49.80;;;;;;4958310;28;88918;-59
2024/01/29 02:24:15;;;;;;;1.25;1.08;;;21.20;49.80;;;;;;4955377;28;88397;-59
2024/01/29 02:26:45;;;;;;;2.55;1.27;;;21.20;49.70;;;;;;4953741;28;87738;-59
2024/01/29 02:29:11;;;;;;;1.38;1.00;;;21.20;49.70;;;;;;4953459;28;88707;-57
2024/01/29 02:31:36;;;;;;;1.65;1.13;;;21.20;49.70;;;;;;4944808;28;88074;-58
2024/01/29 02:34:02;;;;;;;1.10;0.93;;;21.20;49.70;;;;;;4953350;28;87482;-59
2024/01/29 02:36:28;;;;;;;1.15;0.90;;;21.10;49.50;;;;;;4952127;28;88253;-58
2024/01/29 02:38:54;;;;;;;1.35;0.88;;;21.10;49.70;;;;;;4955266;28;89362;-59
2024/01/29 02:41:19;;;;;;;0.82;0.80;;;21.10;49.50;;;;;;4971190;27;87613;-58
2024/01/29 02:43:45;;;;;;;1.42;1.10;;;21.10;49.70;;;;;;4957674;28;88328;-57
2024/01/29 02:46:10;;;;;;;1.10;1.00;;;21.10;49.80;;;;;;4958150;28;87392;-58
2024/01/29 02:48:37;;;;;;;1.10;0.70;;;21.10;49.50;;;;;;4958163;27;88430;-59
2024/01/29 02:51:03;;;;;;;1.20;1.10;;;21.10;49.60;;;;;;4952549;28;88820;-58
2024/01/29 02:53:29;;;;;;;1.48;0.90;;;21.10;49.50;;;;;;4954762;27;88400;-58
2024/01/29 02:55:55;;;;;;;1.20;0.90;;;21.10;49.70;;;;;;4958246;28;87472;-56
2024/01/29 02:58:22;;;;;;;1.15;0.93;;;21.00;49.70;;;;;;4959531;28;89541;-58
2024/01/29 03:00:48;;;;;;;0.80;0.80;;;21.00;49.60;;;;;;4956152;27;87929;-59
2024/01/29 03:03:13;;;;;;;1.60;1.27;;;21.00;49.60;;;;;;4953457;28;87633;-58
2024/01/29 03:05:39;;;;;;;1.08;0.90;;;21.00;49.70;;;;;;4972378;27;87111;-58
2024/01/29 03:08:06;;;;;;;1.63;0.80;;;21.00;49.60;;;;;;4955507;28;89086;-58
2024/01/29 03:10:32;;;;;;;1.55;0.90;;;21.00;49.60;;;;;;4957668;28;88389;-59
2024/01/29 03:12:58;;;;;;;1.13;0.88;;;21.00;49.70;;;;;;4953770;27;87495;-59
2024/01/29 03:15:25;;;;;;;1.02;0.90;;;21.00;49.80;;;;;;4958515;27;87063;-57
2024/01/29 03:17:51;;;;;;;1.20;1.00;;;21.00;49.60;;;;;;4957655;28;88850;-58
2024/01/29 03:20:17;;;;;;;1.00;0.82;;;21.00;49.70;;;;;;4952765;27;88380;-59
2024/01/29 03:22:43;;;;;;;1.05;0.95;;;20.90;49.60;;;;;;4959555;28;88159;-59
2024/01/29 03:25:09;;;;;;;1.00;0.77;;;20.90;49.70;;;;;;4956246;28;86573;-59
2024/01/29 03:27:35;;;;;;;1.38;0.63;;;20.90;49.60;;;;;;4957713;27;88172;-59
2024/01/29 03:30:01;;;;;;;1.02;1.00;;;20.90;49.70;;;;;;4954678;28;90072;-59
2024/01/29 03:32:26;;;;;;;1.55;0.95;;;20.90;49.70;;;;;;4955211;27;88626;-58
2024/01/29 03:34:53;;;;;;;1.85;1.10;;;20.90;49.60;;;;;;4957506;28;87515;-58
2024/01/29 03:37:18;;;;;;;0.98;0.98;;;20.90;49.60;;;;;;4990428;28;89739;-58
2024/01/29 03:39:44;;;;;;;1.20;1.10;;;20.90;49.60;;;;;;4957819;28;87746;-58
2024/01/29 03:42:10;;;;;;;1.42;1.10;;;20.80;49.60;;;;;;4955831;28;87370;-58
2024/01/29 03:44:35;;;;;;;1.00;0.90;;;20.80;49.50;;;;;;4959131;28;87098;-57
2024/01/29 03:47:01;;;;;;;0.93;0.80;;;20.80;49.60;;;;;;4955210;28;88869;-57
2024/01/29 03:49:27;;;;;;;1.08;0.70;;;20.80;49.50;;;;;;4958340;28;88291;-57
2024/01/29 03:51:53;;;;;;;1.10;0.90;;;20.80;49.50;;;;;;4961766;28;87188;-59
2024/01/29 03:54:18;;;;;;;0.88;0.70;;;20.80;49.60;;;;;;4988265;27;89698;-58
2024/01/29 03:56:44;;;;;;;1.33;0.80;;;20.80;49.40;;;;;;4954684;28;89292;-58
2024/01/29 03:59:11;;;;;;;1.08;0.95;;;20.80;49.40;;;;;;4953628;27;91182;-59
2024/01/29 04:01:38;;;;;;;0.82;0.70;;;20.80;49.60;;;;;;4955830;28;87407;-58
2024/01/29 04:04:09;;;;;;;0.85;0.75;;;20.80;49.60;;;;;;4951220;27;87615;-58
2024/01/29 04:06:39;;;;;;;1.30;1.00;;;20.70;49.60;;;;;;4955003;28;88103;-59
2024/01/29 04:09:06;;;;;;;1.40;1.00;;;20.80;49.50;;;;;;4957143;28;87884;-59
2024/01/29 04:11:32;;;;;;;1.63;0.95;;;20.70;49.50;;;;;;4956420;27;87721;-57
2024/01/29 04:13:58;;;;;;;1.50;1.08;;;20.70;49.30;;;;;;4956071;28;88303;-59
2024/01/29 04:16:24;;;;;;;0.90;0.80;;;20.70;49.50;;;;;;4954428;28;88555;-58
2024/01/29 04:18:50;;;;;;;1.10;0.85;;;20.70;49.40;;;;;;4987899;28;88045;-59
2024/01/29 04:21:16;;;;;;;0.88;0.80;;;20.70;49.40;;;;;;4955390;28;88632;-56
2024/01/29 04:23:41;;;;;;;1.10;0.98;;;20.70;49.70;;;;;;4957251;28;88203;-58
2024/01/29 04:26:07;;;;;;;2.08;1.02;;;20.70;49.70;;;;;;4956886;28;88170;-59
2024/01/29 04:28:33;;;;;;;1.25;0.90;;;20.70;49.60;;;;;;4952320;28;88089;-60
2024/01/29 04:30:59;;;;;;;1.02;0.90;;;20.70;49.70;;;;;;4955341;28;87637;-58
2024/01/29 04:33:25;;;;;;;1.27;0.80;;;20.60;49.60;;;;;;4957266;28;87681;-59
2024/01/29 04:35:50;;;;;;;1.27;1.00;;;20.60;49.60;;;;;;4956193;28;89057;-58
2024/01/29 04:38:16;;;;;;;1.13;0.88;;;20.60;49.40;;;;;;4957642;28;88051;-56
2024/01/29 04:40:42;;;;;;;1.63;1.05;;;20.60;49.40;;;;;;4955550;28;87479;-58
2024/01/29 04:43:08;;;;;;;1.02;0.80;;;20.60;49.50;;;;;;4952826;28;88548;-57
2024/01/29 04:45:34;;;;;;;1.10;0.77;;;20.60;49.50;;;;;;4954556;28;90073;-57
2024/01/29 04:48:00;;;;;;;1.00;0.80;;;20.60;49.50;;;;;;4957353;28;88711;-58
2024/01/29 04:50:26;;;;;;;1.20;0.88;;;20.60;49.60;;;;;;4960507;28;87624;-58
2024/01/29 04:52:52;;;;;;;0.80;0.70;;;20.60;49.50;;;;;;4956724;28;87602;-57
2024/01/29 04:55:18;;;;;;;1.00;0.82;;;20.60;49.40;;;;;;4956001;28;90032;-58
2024/01/29 04:57:43;;;;;;;1.45;1.00;;;20.60;49.50;;;;;;4934618;28;88282;-59
2024/01/29 05:00:10;;;;;;;1.52;0.90;;;20.60;49.30;;;;;;4951249;28;87121;-58
2024/01/29 05:02:36;;;;;;;1.55;1.02;;;20.50;49.20;;;;;;4952295;27;86865;-56
2024/01/29 05:05:02;;;;;;;0.80;0.80;;;20.50;49.50;;;;;;4952384;28;88151;-59
2024/01/29 05:07:28;;;;;;;1.25;1.10;;;20.50;49.50;;;;;;4955059;28;87884;-59
2024/01/29 05:09:54;;;;;;;1.27;0.90;;;20.50;49.50;;;;;;4952145;28;88315;-59
2024/01/29 05:12:20;;;;;;;0.70;0.63;;;20.50;49.50;;;;;;4954912;27;87546;-57
2024/01/29 05:14:46;;;;;;;1.38;0.85;;;20.50;49.50;;;;;;4953848;28;91641;-59
2024/01/29 05:17:12;;;;;;;1.33;0.88;;;20.50;49.50;;;;;;4968675;28;88328;-59
2024/01/29 05:19:40;;;;;;;0.93;0.82;;;20.50;49.50;;;;;;4954911;28;87824;-59
2024/01/29 05:22:06;;;;;;;0.88;0.88;;;20.50;49.60;;;;;;4952979;28;87533;-57
2024/01/29 05:24:32;;;;;;;0.73;0.70;;;20.50;49.50;;;;;;4957015;28;88798;-58
2024/01/29 05:26:58;;;;;;;1.30;0.80;;;20.50;49.50;;;;;;4952733;28;86842;-58
2024/01/29 05:29:24;;;;;;;0.88;0.75;;;20.50;49.50;;;;;;4954743;28;87671;-58
2024/01/29 05:31:50;;;;;;;0.98;0.80;;;20.40;49.50;;;;;;4956612;28;87611;-59
2024/01/29 05:34:16;;;;;;;1.00;0.80;;;20.40;49.60;;;;;;4949679;27;89360;-58
2024/01/29 05:36:41;;;;;;;1.20;0.85;;;20.40;49.30;;;;;;4956854;28;88745;-58
2024/01/29 05:39:07;;;;;;;0.98;0.85;;;20.40;49.50;;;;;;4953650;28;87209;-58
2024/01/29 05:41:33;;;;;;;1.05;0.77;;;20.40;49.30;;;;;;4951779;28;87832;-58
2024/01/29 05:44:00;;;;;;;0.80;0.80;;;20.40;49.40;;;;;;4954011;28;88454;-57
2024/01/29 05:46:26;;;;;;;0.82;0.70;;;20.40;49.40;;;;;;4958005;28;91446;-59
2024/01/29 05:48:52;;;;;;;0.82;0.80;;;20.40;49.40;;;;;;4955406;28;87773;-58
2024/01/29 05:51:17;;;;;;;0.82;0.82;;;20.40;49.40;;;;;;4953941;28;86878;-59
2024/01/29 05:53:44;;;;;;;1.15;0.82;;;20.40;49.30;;;;;;4955267;28;88805;-59
2024/01/29 05:56:10;;;;;;;1.13;0.80;;;20.40;49.40;;;;;;4955962;28;87925;-59
2024/01/29 05:58:36;;;;;;;1.00;0.90;;;20.40;49.30;;;;;;4955945;28;88199;-59
2024/01/29 06:01:03;;;;;;;1.15;0.93;;;20.40;49.40;;;;;;4954609;28;87424;-59
2024/01/29 06:03:28;;;;;;;1.00;0.70;;;20.30;49.30;;;;;;4957864;28;87734;-59
2024/01/29 06:05:55;;;;;;;1.05;0.70;;;20.30;49.40;;;;;;4954276;28;88331;-59
2024/01/29 06:08:20;;;;;;;0.70;0.70;;;20.30;49.60;;;;;;4954763;28;87379;-58
2024/01/29 06:10:46;;;;;;;0.77;0.77;;;20.30;49.50;;;;;;4956541;28;88347;-58
2024/01/29 06:13:12;;;;;;;1.00;0.77;;;20.30;49.50;;;;;;4952007;28;88124;-57
2024/01/29 06:15:37;;;;;;;0.90;0.70;;;20.30;49.60;;;;;;4955270;28;87738;-58
2024/01/29 06:18:04;;;;;;;1.00;0.90;;;20.30;49.30;;;;;;4956764;28;86984;-59
2024/01/29 06:20:30;;;;;;;1.70;0.95;;;20.30;48.80;;;;;;4955790;28;89552;-57
2024/01/29 06:22:56;;;;;;;2.08;0.85;;;20.30;48.90;;;;;;4951986;28;89247;-58
2024/01/29 06:25:23;;;;;;;1.10;0.90;;;20.30;48.90;;;;;;4955507;28;88831;-56
2024/01/29 06:27:49;;;;;;;1.17;0.88;;;20.20;48.90;;;;;;4956853;28;87964;-57
2024/01/29 06:30:15;;;;;;;0.80;0.68;;;20.20;48.90;;;;;;4953408;28;86996;-58
2024/01/29 06:32:41;;;;;;;1.20;1.10;;;20.30;49.00;;;;;;4951147;27;87563;-59
2024/01/29 06:35:08;;;;;;;1.70;0.90;;;20.20;48.80;;;;;;4951790;28;87437;-58
2024/01/29 06:37:34;;;;;;;1.05;0.93;;;20.20;49.00;;;;;;4956408;28;88092;-59
2024/01/29 06:40:01;;;;;;;2.45;0.80;;;20.20;49.00;;;;;;4952494;27;87516;-58
2024/01/29 06:42:26;;;;;;;1.10;0.82;;;20.20;48.90;;;;;;4954293;28;88764;-59
2024/01/29 06:44:54;;;;;;;1.00;0.90;;;20.20;49.00;;;;;;4954203;27;86971;-58
2024/01/29 06:47:20;;;;;;;2.47;1.00;;;20.10;49.00;;;;;;4958228;27;88576;-58
2024/01/29 06:49:46;;;;;;;1.00;0.90;;;20.10;48.80;;;;;;4989299;28;87579;-58
2024/01/29 06:52:12;;;;;;;0.80;0.80;;;20.10;49.00;;;;;;4957555;28;88084;-58
2024/01/29 06:54:39;;;;;;;1.00;0.90;;;20.10;49.00;;;;;;4956346;28;90266;-58
2024/01/29 06:57:06;;;;;;;1.70;1.00;;;20.10;48.70;;;;;;4956837;27;87271;-58
2024/01/29 06:59:34;;;;;;;2.80;1.58;;;20.20;49.00;;;;;;4956590;28;87957;-57
2024/01/29 07:02:00;;;;;;;2.35;0.90;;;20.10;48.80;;;;;;4941709;28;87692;-59
2024/01/29 07:04:26;;;;;;;1.50;0.95;;;20.10;48.80;;;;;;4954138;28;91487;-58
2024/01/29 07:06:52;;;;;;;3.75;0.90;;;20.10;48.80;;;;;;4951969;28;87633;-58
2024/01/29 07:09:17;;;;;;;4.03;0.90;;;20.10;49.00;;;;;;4953095;28;87424;-58
2024/01/29 07:11:44;;;;;;;1.02;0.90;;;20.10;48.80;;;;;;4954624;28;88616;-58
2024/01/29 07:14:09;;;;;;;1.02;0.80;;;20.10;48.90;;;;;;4954878;28;88940;-58
2024/01/29 07:16:35;;;;;;;3.58;1.30;;;20.10;49.10;;;;;;4959863;28;87803;-59
2024/01/29 07:19:01;;;;;;;1.80;1.15;;;20.10;49.20;;;;;;4955002;28;87717;-59
2024/01/29 07:21:26;;;;;;;1.33;0.80;;;20.20;49.30;;;;;;4960825;27;87788;-59
2024/01/29 07:23:53;;;;;;;1.45;0.95;;;20.10;49.20;;;;;;4957942;28;87313;-59
2024/01/29 07:26:20;;;;;;;1.40;0.90;;;20.10;49.00;;;;;;4952846;27;87470;-58
2024/01/29 07:28:46;;;;;;;2.75;0.90;;;20.20;49.70;;;;;;4956275;28;86281;-59
2024/01/29 07:31:11;;;;;;;1.88;1.23;;;20.30;49.90;;;;;;4955423;27;88041;-59
2024/01/29 07:33:37;;;;;;;1.33;1.00;;;20.40;49.80;;;;;;4955372;28;89386;-59
2024/01/29 07:36:03;;;;;;;1.23;0.90;;;20.50;49.40;;;;;;4955017;28;88612;-59
2024/01/29 07:38:29;;;;;;;1.15;0.98;;;20.60;49.40;;;;;;4954267;28;87868;-59
2024/01/29 07:40:55;;;;;;;1.58;1.30;;;20.70;49.40;;;;;;4958111;28;87517;-58
2024/01/29 07:43:22;;;;;;;1.10;1.00;;;20.80;49.50;;;;;;4955604;28;88051;-58
2024/01/29 07:45:48;;;;;;;1.05;0.73;;;20.90;49.40;;;;;;4951083;28;87164;-59
2024/01/29 07:48:13;;;;;;;1.58;1.10;;;20.90;49.40;;;;;;4953649;28;87959;-57
2024/01/29 07:50:39;;;;;;;1.20;1.10;;;20.90;49.30;;;;;;4955770;28;90221;-59
2024/01/29 07:53:07;;;;;;;1.55;0.98;;;21.00;49.00;;;;;;4985867;27;87011;-59
2024/01/29 07:55:33;;;;;;;2.90;1.30;;;21.10;48.80;;;;;;4953491;28;87479;-59
2024/01/29 07:57:59;;;;;;;3.15;1.30;;;21.20;48.80;;;;;;4954083;28;87860;-59
2024/01/29 08:00:26;;;;;;;1.35;0.80;;;21.20;48.90;;;;;;4956709;27;89033;-60
2024/01/29 08:02:51;;;;;;;1.33;0.80;;;21.30;48.90;;;;;;4955540;28;88197;-59
2024/01/29 08:05:17;;;;;;;1.05;0.95;;;21.30;48.90;;;;;;4955109;28;87956;-57
2024/01/29 08:07:43;;;;;;;1.00;0.82;;;21.30;48.80;;;;;;4955875;28;87740;-59
2024/01/29 08:10:08;;;;;;;3.17;1.00;;;21.30;48.70;;;;;;4949957;28;88304;-60
2024/01/29 08:12:34;;;;;;;0.90;0.70;;;21.40;48.80;;;;;;4955071;28;88243;-60
2024/01/29 08:15:00;;;;;;;0.88;0.85;;;21.40;48.70;;;;;;4946979;28;87149;-59
2024/01/29 08:17:26;;;;;;;1.60;0.70;;;21.50;48.70;;;;;;4942474;28;87224;-59
2024/01/29 08:19:51;;;;;;;1.10;1.00;;;21.50;48.70;;;;;;4961061;28;87905;-59
2024/01/29 08:22:18;;;;;;;0.80;0.80;;;21.60;48.50;;;;;;4955344;27;88080;-59
2024/01/29 08:24:44;;;;;;;3.10;1.02;;;21.60;48.40;;;;;;4958978;27;88680;-60
2024/01/29 08:27:10;;;;;;;3.28;1.50;;;21.60;48.30;;;;;;4955614;28;87389;-60
2024/01/29 08:29:36;;;;;;;4.15;1.23;;;21.60;48.40;;;;;;4953123;28;88799;-60
2024/01/29 08:32:04;;;;;;;4.38;1.20;;;21.70;48.10;;;;;;4951990;28;87438;-59
2024/01/29 08:34:30;;;;;;;29.90;4.70;;;21.70;47.80;;;;;;4958498;28;87588;-60
2024/01/29 08:36:56;;;;;;;28.77;4.93;;;21.70;48.00;;;;;;4940375;28;87738;-58
2024/01/29 08:39:23;;;;;;;24.15;4.07;;;21.80;47.90;;;;;;4953353;28;88699;-58
2024/01/29 08:41:49;;;;;;;28.83;6.30;;;21.80;48.10;;;;;;4951476;28;88337;-60
2024/01/29 08:44:14;;;;;;;22.13;5.35;;;21.80;48.40;;;;;;4954532;28;88054;-60
2024/01/29 08:46:40;;;;;;;25.88;5.35;;;21.80;48.80;;;;;;4956985;28;87431;-59
2024/01/29 08:49:05;;;;;;;20.55;5.00;;;21.80;49.20;;;;;;4950210;27;88727;-59
2024/01/29 08:51:32;;;;;;;19.38;5.40;;;21.90;49.70;;;;;;4952576;28;89643;-59
2024/01/29 08:53:57;;;;;;;23.23;6.63;;;21.90;50.20;;;;;;4955237;28;87597;-60
2024/01/29 08:56:24;;;;;;;28.15;5.03;;;21.90;50.80;;;;;;4954473;28;87426;-61
2024/01/29 08:58:57;;;;;;;15.00;4.82;;;21.90;51.20;;;;;;4956428;28;88596;-60
2024/01/29 09:01:23;;;;;;;22.70;5.10;;;22.00;51.40;;;;;;4980747;28;88900;-59
2024/01/29 09:03:49;;;;;;;23.42;5.43;;;22.00;51.70;;;;;;4949989;28;87381;-57
2024/01/29 09:06:14;;;;;;;17.42;4.03;;;22.00;51.90;;;;;;4951160;28;87102;-58
2024/01/29 09:08:43;;;;;;;19.77;4.53;;;22.10;50.60;;;;;;4955489;28;88160;-59
2024/01/29 09:11:08;;;;;;;17.10;5.40;;;22.10;51.20;;;;;;4952819;28;87867;-59
2024/01/29 09:13:34;;;;;;;16.95;4.32;;;22.10;51.50;;;;;;4957484;28;88032;-58
2024/01/29 09:16:00;;;;;;;17.13;5.03;;;22.10;51.40;;;;;;4946809;28;87029;-59
2024/01/29 09:18:25;;;;;;;14.38;4.20;;;22.20;51.30;;;;;;4953331;28;88550;-59
2024/01/29 09:20:51;;;;;;;20.60;4.53;;;22.20;51.20;;;;;;4949871;28;88152;-59
2024/01/29 09:23:18;;;;;;;15.43;4.28;;;22.20;51.00;;;;;;4956967;28;87632;-59
2024/01/29 09:25:44;;;;;;;14.95;4.28;;;22.20;51.00;;;;;;4956083;28;87231;-58
2024/01/29 09:28:10;;;;;;;10.75;3.83;;;22.20;50.90;;;;;;4957052;27;87584;-58
2024/01/29 09:30:36;;;;;;;13.05;4.07;;;22.20;50.90;;;;;;4969221;28;87366;-57
2024/01/29 09:33:03;;;;;;;12.82;4.32;;;22.20;50.80;;;;;;4956441;28;87809;-59
2024/01/29 09:35:29;;;;;;;16.67;5.35;;;22.20;50.60;;;;;;4956565;28;87432;-59
2024/01/29 09:37:56;;;;;;;13.45;3.92;;;22.30;50.60;;;;;;4951270;28;89758;-60
2024/01/29 09:40:23;;;;;;;12.48;3.45;;;22.30;50.60;;;;;;4952272;28;88812;-59
2024/01/29 09:42:52;;;;;;;13.18;4.03;;;22.30;50.40;;;;;;4951817;28;87759;-58
2024/01/29 09:45:25;;;;;;;9.73;3.42;;;22.40;50.40;;;;;;4954378;28;87970;-59
2024/01/29 09:47:55;;;;;;;13.05;4.43;;;22.40;50.40;;;;;;4951096;28;87646;-59
2024/01/29 09:50:24;;;;;;;11.30;3.83;;;22.40;50.30;;;;;;4964271;27;89119;-59
2024/01/29 09:52:53;;;;;;;12.60;3.30;;;22.40;50.30;;;;;;4955124;28;87581;-59
2024/01/29 09:55:18;;;;;;;8.75;3.47;;;22.40;50.10;;;;;;4971740;28;88068;-59
2024/01/29 09:57:45;;;;;;;7.60;3.05;;;22.40;50.10;;;;;;4959477;27;87676;-58
2024/01/29 10:00:12;;;;;;;11.98;4.05;;;22.40;50.00;;;;;;4987711;28;88219;-59
2024/01/29 10:02:42;;;;;;;9.73;3.72;;;22.40;49.80;;;;;;4961368;28;88523;-59
2024/01/29 10:05:11;;;;;;;12.02;4.00;;;22.40;49.90;;;;;;4956297;28;87487;-59
2024/01/29 10:07:38;;;;;;;14.38;3.75;;;22.50;49.90;;;;;;4957531;28;87848;-59
2024/01/29 10:10:11;;;;;;;10.45;3.72;;;22.50;49.70;;;;;;4957406;28;90856;-59
2024/01/29 10:12:37;;;;;;;9.98;3.35;;;22.50;49.70;;;;;;4950085;28;87066;-59
2024/01/29 10:15:04;;;;;;;11.93;3.28;;;22.50;49.80;;;;;;4962123;27;87757;-57
2024/01/29 10:17:29;;;;;;;12.50;4.10;;;22.50;49.70;;;;;;4960609;27;87409;-59
2024/01/29 10:19:55;;;;;;;11.82;3.88;;;22.60;49.50;;;;;;4957724;28;87690;-59
2024/01/29 10:22:27;;;;;;;7.57;2.90;;;22.60;49.60;;;;;;4958881;28;88243;-59
2024/01/29 10:25:03;;;;;;;10.10;3.22;;;22.50;49.40;;;;;;4959626;28;88582;-59
2024/01/29 10:27:30;;;;;;;9.65;3.45;;;22.60;49.50;;;;;;4957025;28;89295;-59
2024/01/29 10:29:56;;;;;;;8.73;2.97;;;22.60;49.40;;;;;;4956286;27;89280;-60
2024/01/29 10:32:22;;;;;;;12.63;3.55;;;22.60;49.50;;;;;;4952946;28;87750;-57
2024/01/29 10:34:48;;;;;;;14.10;4.22;;;22.60;49.50;;;;;;4956415;28;87520;-58
2024/01/29 10:37:16;;;;;;;8.40;3.55;;;22.60;49.40;;;;;;4956092;27;88098;-60
2024/01/29 10:39:42;;;;;;;10.73;3.53;;;22.70;49.50;;;;;;4954072;28;87240;-59
2024/01/29 10:42:14;;;;;;;10.57;3.35;;;22.60;50.10;;;;;;4961971;28;87494;-59
2024/01/29 10:44:40;;;;;;;7.95;3.13;;;22.70;49.30;;;;;;4955138;28;87356;-60
2024/01/29 10:47:13;;;;;;;9.85;3.28;;;22.70;49.30;;;;;;4955706;27;88060;-58
2024/01/29 10:49:41;;;;;;;7.18;2.42;;;22.70;49.20;;;;;;4956158;28;88530;-59
2024/01/29 10:52:09;;;;;;;8.57;3.27;;;22.70;49.20;;;;;;4957554;28;88184;-59
2024/01/29 10:54:35;;;;;;;6.60;3.00;;;22.80;49.30;;;;;;4960661;28;87563;-59
2024/01/29 10:57:03;;;;;;;7.65;2.70;;;22.70;49.40;;;;;;4953776;28;89842;-60
2024/01/29 10:59:30;;;;;;;8.73;3.00;;;22.70;49.10;;;;;;4953750;28;87999;-58
2024/01/29 11:01:56;;;;;;;8.15;3.05;;;22.70;48.80;;;;;;4958338;28;87522;-60
2024/01/29 11:04:23;;;;;;;7.93;3.10;;;22.80;48.70;;;;;;4956586;27;87579;-59
2024/01/29 11:06:57;;;;;;;6.22;2.55;;;22.70;48.80;;;;;;4958633;28;88798;-59
2024/01/29 11:09:27;;;;;;;5.90;2.70;;;22.70;48.30;;;;;;4956224;28;87267;-58
2024/01/29 11:11:54;;;;;;;6.03;2.92;;;22.70;47.80;;;;;;4939184;28;87224;-60
2024/01/29 11:14:21;;;;;;;6.55;2.75;;;22.70;47.80;;;;;;4951890;27;87273;-59
2024/01/29 11:16:50;;;;;;;7.35;2.67;;;22.70;47.10;;;;;;4955777;28;89663;-58
2024/01/29 11:19:16;;;;;;;6.75;2.90;;;22.80;47.20;;;;;;4954417;28;92003;-59
2024/01/29 11:21:49;;;;;;;6.18;2.65;;;22.80;47.30;;;;;;4953995;27;87648;-59
2024/01/29 11:24:16;;;;;;;6.75;2.83;;;22.70;47.40;;;;;;4959445;28;87313;-59
2024/01/29 11:26:42;;;;;;;4.45;2.72;;;22.80;46.90;;;;;;4953944;28;90819;-59
2024/01/29 11:29:10;;;;;;;7.88;2.72;;;22.80;47.00;;;;;;4969191;27;88179;-59
2024/01/29 11:31:43;;;;;;;6.73;2.57;;;22.70;46.80;;;;;;4955836;28;87574;-58
2024/01/29 11:34:11;;;;;;;5.50;2.38;;;22.70;46.90;;;;;;4974173;28;88192;-59
2024/01/29 11:36:38;;;;;;;6.03;2.53;;;22.80;46.90;;;;;;4958083;28;88677;-59
2024/01/29 11:39:05;;;;;;;9.93;2.83;;;22.80;47.50;;;;;;4957105;27;88385;-59
2024/01/29 11:41:36;;;;;;;8.20;2.80;;;22.80;47.60;;;;;;4953966;27;88528;-60
2024/01/29 11:44:02;;;;;;;4.80;2.47;;;22.80;47.90;;;;;;4955252;28;88896;-59
2024/01/29 11:46:29;;;;;;;4.25;2.30;;;22.80;48.00;;;;;;4952831;28;89003;-59
2024/01/29 11:49:04;;;;;;;4.93;2.38;;;22.80;47.50;;;;;;4954101;28;87724;-60
2024/01/29 11:51:29;;;;;;;5.32;2.63;;;22.80;47.00;;;;;;4986728;27;87385;-59
2024/01/29 11:53:55;;;;;;;7.13;2.75;;;22.80;46.80;;;;;;4956090;28;87666;-59
2024/01/29 11:56:21;;;;;;;5.63;2.50;;;22.80;46.70;;;;;;4952009;28;88944;-59
2024/01/29 11:59:02;;;;;;;6.03;2.60;;;22.80;46.50;;;;;;4955488;28;87859;-59
2024/01/29 12:01:33;;;;;;;6.95;2.53;;;22.80;46.30;;;;;;4949074;28;87558;-60
2024/01/29 12:04:00;;;;;;;5.43;2.53;;;22.80;46.20;;;;;;4952595;28;87587;-59
2024/01/29 12:06:28;;;;;;;7.18;2.45;;;22.80;46.40;;;;;;4950621;28;89574;-59
2024/01/29 12:08:54;;;;;;;5.82;2.08;;;22.80;46.50;;;;;;4955377;28;89582;-60
2024/01/29 12:11:21;;;;;;;5.53;2.55;;;22.80;46.40;;;;;;4955981;28;87471;-58
2024/01/29 12:13:47;;;;;;;7.75;2.42;;;22.80;46.70;;;;;;4953207;28;86960;-59
2024/01/29 12:16:14;;;;;;;6.85;2.13;;;22.80;46.50;;;;;;4957276;28;87207;-59
2024/01/29 12:18:40;;;;;;;8.00;3.00;;;22.80;46.50;;;;;;4956136;28;87938;-59
2024/01/29 12:21:08;;;;;;;7.53;3.00;;;22.80;46.40;;;;;;4951336;27;87314;-59
2024/01/29 12:23:34;;;;;;;6.00;3.00;;;22.80;46.50;;;;;;4955643;27;86874;-60
2024/01/29 12:26:00;;;;;;;5.75;2.88;;;22.80;46.30;;;;;;4957036;28;88577;-60
2024/01/29 12:28:26;;;;;;;4.97;3.08;;;22.80;46.90;;;;;;4950037;28;88167;-60
2024/01/29 12:30:52;;;;;;;7.00;2.70;;;22.80;46.20;;;;;;4952157;28;89010;-59
2024/01/29 12:33:18;;;;;;;5.07;2.45;;;22.70;46.80;;;;;;4955301;28;88078;-59
2024/01/29 12:35:44;;;;;;;6.88;2.60;;;22.80;46.00;;;;;;4953249;28;88682;-58
2024/01/29 12:38:13;;;;;;;6.95;2.72;;;22.70;46.10;;;;;;4944310;28;87682;-60
2024/01/29 12:40:41;;;;;;;;;;;22.80;45.70;;;;;;4970833;28;87494;-60
2024/01/29 12:43:11;;;;;;;4.00;2.40;;;22.70;45.80;;;;;;4953220;28;88043;-60